sensor_id;sensor_type;location;lat;lon;timestamp;temperature;humidity
80743;SHT31;70142;50.894;6.052;2024-03-02T00:00:58;10.81;61.46
80743;SHT31;70142;50.894;6.052;2024-03-02T00:03:32;10.79;61.41
80743;SHT31;70142;50.894;6.052;2024-03-02T00:06:06;10.77;61.26
80743;SHT31;70142;50.894;6.052;2024-03-02T00:08:40;10.83;61.47
80743;SHT31;70142;50.894;6.052;2024-03-02T00:11:13;10.85;61.19
80743;SHT31;70142;50.894;6.052;2024-03-02T00:13:48;10.89;61.41
80743;SHT31;70142;50.894;6.052;2024-03-02T00:16:30;10.89;61.36
80743;SHT31;70142;50.894;6.052;2024-03-02T00:19:03;10.87;61.47
80743;SHT31;70142;50.894;6.052;2024-03-02T00:21:38;10.87;61.37
80743;SHT31;70142;50.894;6.052;2024-03-02T00:24:20;10.91;61.49
80743;SHT31;70142;50.894;6.052;2024-03-02T00:26:54;10.96;61.43
80743;SHT31;70142;50.894;6.052;2024-03-02T00:29:28;11.06;61.05
80743;SHT31;70142;50.894;6.052;2024-03-02T00:32:03;11.06;61.23
80743;SHT31;70142;50.894;6.052;2024-03-02T00:34:38;11.10;61.26
80743;SHT31;70142;50.894;6.052;2024-03-02T00:37:11;11.08;61.01
80743;SHT31;70142;50.894;6.052;2024-03-02T00:39:49;11.14;61.00
80743;SHT31;70142;50.894;6.052;2024-03-02T00:42:22;11.12;61.02
80743;SHT31;70142;50.894;6.052;2024-03-02T00:44:56;11.11;61.05
80743;SHT31;70142;50.894;6.052;2024-03-02T00:47:31;11.12;61.13
80743;SHT31;70142;50.894;6.052;2024-03-02T00:50:05;11.11;61.32
80743;SHT31;70142;50.894;6.052;2024-03-02T00:52:51;11.01;61.15
80743;SHT31;70142;50.894;6.052;2024-03-02T00:55:26;11.11;61.35
80743;SHT31;70142;50.894;6.052;2024-03-02T00:58:00;11.12;61.21
80743;SHT31;70142;50.894;6.052;2024-03-02T01:00:33;11.12;61.15
80743;SHT31;70142;50.894;6.052;2024-03-02T01:03:07;11.10;61.27
80743;SHT31;70142;50.894;6.052;2024-03-02T01:05:42;11.11;61.19
80743;SHT31;70142;50.894;6.052;2024-03-02T01:08:15;11.11;61.81
80743;SHT31;70142;50.894;6.052;2024-03-02T01:10:48;11.14;61.74
80743;SHT31;70142;50.894;6.052;2024-03-02T01:13:22;11.14;61.62
80743;SHT31;70142;50.894;6.052;2024-03-02T01:15:56;11.14;61.72
80743;SHT31;70142;50.894;6.052;2024-03-02T01:18:30;11.14;61.88
80743;SHT31;70142;50.894;6.052;2024-03-02T01:21:04;11.12;62.15
80743;SHT31;70142;50.894;6.052;2024-03-02T01:23:37;11.01;62.83
80743;SHT31;70142;50.894;6.052;2024-03-02T01:26:10;10.94;63.28
80743;SHT31;70142;50.894;6.052;2024-03-02T01:28:44;10.96;63.45
80743;SHT31;70142;50.894;6.052;2024-03-02T01:31:17;10.90;63.72
80743;SHT31;70142;50.894;6.052;2024-03-02T01:33:51;10.85;64.29
80743;SHT31;70142;50.894;6.052;2024-03-02T01:36:25;10.53;66.22
80743;SHT31;70142;50.894;6.052;2024-03-02T01:38:58;10.08;69.18
80743;SHT31;70142;50.894;6.052;2024-03-02T01:41:31;9.88;70.37
80743;SHT31;70142;50.894;6.052;2024-03-02T01:44:04;9.67;70.91
80743;SHT31;70142;50.894;6.052;2024-03-02T01:46:37;9.57;71.30
80743;SHT31;70142;50.894;6.052;2024-03-02T01:49:12;9.33;71.93
80743;SHT31;70142;50.894;6.052;2024-03-02T01:51:45;9.38;72.09
80743;SHT31;70142;50.894;6.052;2024-03-02T01:54:19;9.35;72.09
80743;SHT31;70142;50.894;6.052;2024-03-02T01:56:54;9.31;72.01
80743;SHT31;70142;50.894;6.052;2024-03-02T01:59:27;9.28;72.99
80743;SHT31;70142;50.894;6.052;2024-03-02T02:02:00;9.19;74.09
80743;SHT31;70142;50.894;6.052;2024-03-02T02:04:35;9.10;75.41
80743;SHT31;70142;50.894;6.052;2024-03-02T02:07:09;8.90;75.87
80743;SHT31;70142;50.894;6.052;2024-03-02T02:09:43;8.80;76.28
80743;SHT31;70142;50.894;6.052;2024-03-02T02:12:16;8.72;76.86
80743;SHT31;70142;50.894;6.052;2024-03-02T02:14:50;8.59;76.50
80743;SHT31;70142;50.894;6.052;2024-03-02T02:17:23;8.46;77.06
80743;SHT31;70142;50.894;6.052;2024-03-02T02:19:57;8.49;77.52
80743;SHT31;70142;50.894;6.052;2024-03-02T02:22:32;8.46;77.30
80743;SHT31;70142;50.894;6.052;2024-03-02T02:25:06;8.42;77.37
80743;SHT31;70142;50.894;6.052;2024-03-02T02:27:39;8.44;77.54
80743;SHT31;70142;50.894;6.052;2024-03-02T02:30:13;8.44;77.61
80743;SHT31;70142;50.894;6.052;2024-03-02T02:32:46;8.41;78.33
80743;SHT31;70142;50.894;6.052;2024-03-02T02:35:20;8.35;78.45
80743;SHT31;70142;50.894;6.052;2024-03-02T02:37:55;8.32;78.80
80743;SHT31;70142;50.894;6.052;2024-03-02T02:40:30;8.22;79.23
80743;SHT31;70142;50.894;6.052;2024-03-02T02:43:03;8.14;79.51
80743;SHT31;70142;50.894;6.052;2024-03-02T02:45:36;8.18;79.82
80743;SHT31;70142;50.894;6.052;2024-03-02T02:48:10;8.17;79.96
80743;SHT31;70142;50.894;6.052;2024-03-02T02:50:43;8.12;80.09
80743;SHT31;70142;50.894;6.052;2024-03-02T02:53:17;8.22;80.09
80743;SHT31;70142;50.894;6.052;2024-03-02T02:55:51;8.20;79.96
80743;SHT31;70142;50.894;6.052;2024-03-02T02:58:24;8.24;80.20
80743;SHT31;70142;50.894;6.052;2024-03-02T03:00:57;8.22;80.00
80743;SHT31;70142;50.894;6.052;2024-03-02T03:03:30;8.29;80.11
80743;SHT31;70142;50.894;6.052;2024-03-02T03:06:04;8.32;79.65
80743;SHT31;70142;50.894;6.052;2024-03-02T03:08:38;8.39;79.70
80743;SHT31;70142;50.894;6.052;2024-03-02T03:11:12;8.45;79.38
80743;SHT31;70142;50.894;6.052;2024-03-02T03:13:46;8.45;79.56
80743;SHT31;70142;50.894;6.052;2024-03-02T03:16:20;8.44;79.48
80743;SHT31;70142;50.894;6.052;2024-03-02T03:18:53;8.41;79.55
80743;SHT31;70142;50.894;6.052;2024-03-02T03:21:26;8.52;79.37
80743;SHT31;70142;50.894;6.052;2024-03-02T03:24:01;8.62;79.22
80743;SHT31;70142;50.894;6.052;2024-03-02T03:26:35;8.63;79.26
80743;SHT31;70142;50.894;6.052;2024-03-02T03:29:08;8.62;79.44
80743;SHT31;70142;50.894;6.052;2024-03-02T03:31:42;8.69;79.12
80743;SHT31;70142;50.894;6.052;2024-03-02T03:34:15;8.66;79.23
80743;SHT31;70142;50.894;6.052;2024-03-02T03:36:48;8.72;79.03
80743;SHT31;70142;50.894;6.052;2024-03-02T03:39:23;8.72;79.21
80743;SHT31;70142;50.894;6.052;2024-03-02T03:41:56;8.79;78.79
80743;SHT31;70142;50.894;6.052;2024-03-02T03:44:29;8.83;78.62
80743;SHT31;70142;50.894;6.052;2024-03-02T03:47:02;8.79;78.87
80743;SHT31;70142;50.894;6.052;2024-03-02T03:49:35;8.83;78.74
80743;SHT31;70142;50.894;6.052;2024-03-02T03:52:09;8.77;78.89
80743;SHT31;70142;50.894;6.052;2024-03-02T03:54:43;8.73;78.84
80743;SHT31;70142;50.894;6.052;2024-03-02T03:57:17;8.77;78.68
80743;SHT31;70142;50.894;6.052;2024-03-02T03:59:50;8.83;78.66
80743;SHT31;70142;50.894;6.052;2024-03-02T04:02:25;8.83;78.39
80743;SHT31;70142;50.894;6.052;2024-03-02T04:04:58;8.79;78.39
80743;SHT31;70142;50.894;6.052;2024-03-02T04:07:35;8.76;78.63
80743;SHT31;70142;50.894;6.052;2024-03-02T04:10:13;8.83;78.27
80743;SHT31;70142;50.894;6.052;2024-03-02T04:12:49;8.87;78.38
80743;SHT31;70142;50.894;6.052;2024-03-02T04:15:22;8.84;78.01
80743;SHT31;70142;50.894;6.052;2024-03-02T04:17:56;8.83;78.41
80743;SHT31;70142;50.894;6.052;2024-03-02T04:20:29;8.83;78.45
80743;SHT31;70142;50.894;6.052;2024-03-02T04:23:03;8.87;78.07
80743;SHT31;70142;50.894;6.052;2024-03-02T04:25:37;8.96;77.19
80743;SHT31;70142;50.894;6.052;2024-03-02T04:28:11;8.97;77.57
80743;SHT31;70142;50.894;6.052;2024-03-02T04:30:44;8.89;77.46
80743;SHT31;70142;50.894;6.052;2024-03-02T04:33:17;8.92;77.49
80743;SHT31;70142;50.894;6.052;2024-03-02T04:35:51;8.99;76.94
80743;SHT31;70142;50.894;6.052;2024-03-02T04:38:24;8.99;76.44
80743;SHT31;70142;50.894;6.052;2024-03-02T04:40:59;9.00;76.11
80743;SHT31;70142;50.894;6.052;2024-03-02T04:43:32;9.09;76.06
80743;SHT31;70142;50.894;6.052;2024-03-02T04:46:05;9.00;75.73
80743;SHT31;70142;50.894;6.052;2024-03-02T04:48:39;8.94;75.83
80743;SHT31;70142;50.894;6.052;2024-03-02T04:51:12;8.97;75.60
80743;SHT31;70142;50.894;6.052;2024-03-02T04:53:45;8.97;75.88
80743;SHT31;70142;50.894;6.052;2024-03-02T04:56:20;9.07;75.25
80743;SHT31;70142;50.894;6.052;2024-03-02T04:59:11;9.09;74.76
80743;SHT31;70142;50.894;6.052;2024-03-02T05:01:45;8.99;74.47
80743;SHT31;70142;50.894;6.052;2024-03-02T05:04:19;9.03;74.06
80743;SHT31;70142;50.894;6.052;2024-03-02T05:06:52;9.06;73.91
80743;SHT31;70142;50.894;6.052;2024-03-02T05:09:28;9.11;73.02
80743;SHT31;70142;50.894;6.052;2024-03-02T05:12:03;9.11;72.39
80743;SHT31;70142;50.894;6.052;2024-03-02T05:14:49;9.10;71.83
80743;SHT31;70142;50.894;6.052;2024-03-02T05:17:22;9.07;72.27
80743;SHT31;70142;50.894;6.052;2024-03-02T05:19:55;9.03;72.17
80743;SHT31;70142;50.894;6.052;2024-03-02T05:22:28;9.11;71.82
80743;SHT31;70142;50.894;6.052;2024-03-02T05:25:02;9.06;70.89
80743;SHT31;70142;50.894;6.052;2024-03-02T05:27:37;9.10;70.82
80743;SHT31;70142;50.894;6.052;2024-03-02T05:30:11;9.11;70.67
80743;SHT31;70142;50.894;6.052;2024-03-02T05:32:44;9.16;70.54
80743;SHT31;70142;50.894;6.052;2024-03-02T05:35:18;9.17;69.89
80743;SHT31;70142;50.894;6.052;2024-03-02T05:37:51;9.17;70.19
80743;SHT31;70142;50.894;6.052;2024-03-02T05:40:24;9.13;70.17
80743;SHT31;70142;50.894;6.052;2024-03-02T05:42:59;9.13;70.40
80743;SHT31;70142;50.894;6.052;2024-03-02T05:45:32;9.13;69.72
80743;SHT31;70142;50.894;6.052;2024-03-02T05:48:06;9.16;70.27
80743;SHT31;70142;50.894;6.052;2024-03-02T05:50:41;9.20;69.57
80743;SHT31;70142;50.894;6.052;2024-03-02T05:53:14;9.26;69.55
80743;SHT31;70142;50.894;6.052;2024-03-02T05:55:47;9.20;69.20
80743;SHT31;70142;50.894;6.052;2024-03-02T05:58:26;9.19;69.78
80743;SHT31;70142;50.894;6.052;2024-03-02T06:01:09;9.21;69.98
80743;SHT31;70142;50.894;6.052;2024-03-02T06:03:43;9.28;69.66
80743;SHT31;70142;50.894;6.052;2024-03-02T06:06:16;9.20;70.08
80743;SHT31;70142;50.894;6.052;2024-03-02T06:08:49;9.26;69.72
80743;SHT31;70142;50.894;6.052;2024-03-02T06:11:23;9.27;69.91
80743;SHT31;70142;50.894;6.052;2024-03-02T06:13:58;9.27;69.86
80743;SHT31;70142;50.894;6.052;2024-03-02T06:16:31;9.20;70.22
80743;SHT31;70142;50.894;6.052;2024-03-02T06:19:05;9.10;70.03
80743;SHT31;70142;50.894;6.052;2024-03-02T06:21:38;9.13;70.00
80743;SHT31;70142;50.894;6.052;2024-03-02T06:24:12;9.21;69.94
80743;SHT31;70142;50.894;6.052;2024-03-02T06:26:45;9.28;69.52
80743;SHT31;70142;50.894;6.052;2024-03-02T06:29:20;9.28;69.11
80743;SHT31;70142;50.894;6.052;2024-03-02T06:31:53;9.27;69.24
80743;SHT31;70142;50.894;6.052;2024-03-02T06:34:27;9.23;69.28
80743;SHT31;70142;50.894;6.052;2024-03-02T06:37:00;9.23;69.47
80743;SHT31;70142;50.894;6.052;2024-03-02T06:39:33;9.27;69.55
80743;SHT31;70142;50.894;6.052;2024-03-02T06:42:06;9.19;69.37
80743;SHT31;70142;50.894;6.052;2024-03-02T06:44:41;9.14;69.86
80743;SHT31;70142;50.894;6.052;2024-03-02T06:47:14;9.21;69.30
80743;SHT31;70142;50.894;6.052;2024-03-02T06:49:48;9.23;69.42
80743;SHT31;70142;50.894;6.052;2024-03-02T06:52:24;9.28;68.83
80743;SHT31;70142;50.894;6.052;2024-03-02T06:54:57;9.27;68.97
80743;SHT31;70142;50.894;6.052;2024-03-02T06:57:30;9.33;69.02
80743;SHT31;70142;50.894;6.052;2024-03-02T07:00:06;9.20;69.21
80743;SHT31;70142;50.894;6.052;2024-03-02T07:02:40;9.19;68.83
80743;SHT31;70142;50.894;6.052;2024-03-02T07:05:14;9.20;69.37
80743;SHT31;70142;50.894;6.052;2024-03-02T07:07:47;9.14;69.04
80743;SHT31;70142;50.894;6.052;2024-03-02T07:10:21;9.10;69.35
80743;SHT31;70142;50.894;6.052;2024-03-02T07:12:54;8.96;69.54
80743;SHT31;70142;50.894;6.052;2024-03-02T07:15:29;8.97;69.81
80743;SHT31;70142;50.894;6.052;2024-03-02T07:18:17;8.99;70.03
80743;SHT31;70142;50.894;6.052;2024-03-02T07:20:50;8.96;70.01
80743;SHT31;70142;50.894;6.052;2024-03-02T07:23:23;9.06;69.76
80743;SHT31;70142;50.894;6.052;2024-03-02T07:25:59;9.10;69.68
80743;SHT31;70142;50.894;6.052;2024-03-02T07:28:36;9.20;69.22
80743;SHT31;70142;50.894;6.052;2024-03-02T07:31:11;9.30;69.13
80743;SHT31;70142;50.894;6.052;2024-03-02T07:33:44;9.41;68.77
80743;SHT31;70142;50.894;6.052;2024-03-02T07:36:18;9.38;68.44
80743;SHT31;70142;50.894;6.052;2024-03-02T07:38:52;9.44;68.64
80743;SHT31;70142;50.894;6.052;2024-03-02T07:41:26;9.52;68.43
80743;SHT31;70142;50.894;6.052;2024-03-02T07:43:59;9.54;68.47
80743;SHT31;70142;50.894;6.052;2024-03-02T07:46:34;9.59;68.59
80743;SHT31;70142;50.894;6.052;2024-03-02T07:49:07;9.64;68.21
80743;SHT31;70142;50.894;6.052;2024-03-02T07:51:41;9.74;68.30
80743;SHT31;70142;50.894;6.052;2024-03-02T07:54:14;9.89;66.94
80743;SHT31;70142;50.894;6.052;2024-03-02T07:56:47;9.82;67.21
80743;SHT31;70142;50.894;6.052;2024-03-02T07:59:21;9.70;67.33
80743;SHT31;70142;50.894;6.052;2024-03-02T08:01:56;9.64;67.48
80743;SHT31;70142;50.894;6.052;2024-03-02T08:04:30;9.59;67.89
80743;SHT31;70142;50.894;6.052;2024-03-02T08:07:03;9.59;67.93
80743;SHT31;70142;50.894;6.052;2024-03-02T08:09:37;9.52;67.77
80743;SHT31;70142;50.894;6.052;2024-03-02T08:12:10;9.48;67.62
80743;SHT31;70142;50.894;6.052;2024-03-02T08:14:43;9.55;67.85
80743;SHT31;70142;50.894;6.052;2024-03-02T08:17:18;9.58;67.57
80743;SHT31;70142;50.894;6.052;2024-03-02T08:19:51;9.59;67.38
80743;SHT31;70142;50.894;6.052;2024-03-02T08:22:25;9.57;67.38
80743;SHT31;70142;50.894;6.052;2024-03-02T08:24:58;9.59;66.97
80743;SHT31;70142;50.894;6.052;2024-03-02T08:27:32;9.71;67.31
80743;SHT31;70142;50.894;6.052;2024-03-02T08:30:06;9.78;66.74
80743;SHT31;70142;50.894;6.052;2024-03-02T08:32:42;9.75;66.59
80743;SHT31;70142;50.894;6.052;2024-03-02T08:35:17;9.92;66.42
80743;SHT31;70142;50.894;6.052;2024-03-02T08:37:50;9.82;66.06
80743;SHT31;70142;50.894;6.052;2024-03-02T08:40:23;9.79;65.36
80743;SHT31;70142;50.894;6.052;2024-03-02T08:42:57;9.94;65.84
80743;SHT31;70142;50.894;6.052;2024-03-02T08:45:30;10.01;65.05
80743;SHT31;70142;50.894;6.052;2024-03-02T08:48:06;10.02;65.27
80743;SHT31;70142;50.894;6.052;2024-03-02T08:50:40;10.01;64.84
80743;SHT31;70142;50.894;6.052;2024-03-02T08:53:13;10.01;64.65
80743;SHT31;70142;50.894;6.052;2024-03-02T08:55:50;10.12;64.46
80743;SHT31;70142;50.894;6.052;2024-03-02T08:58:23;10.28;64.36
80743;SHT31;70142;50.894;6.052;2024-03-02T09:00:57;10.22;63.42
80743;SHT31;70142;50.894;6.052;2024-03-02T09:03:31;10.22;63.73
80743;SHT31;70142;50.894;6.052;2024-03-02T09:06:05;10.28;63.80
80743;SHT31;70142;50.894;6.052;2024-03-02T09:08:39;10.26;62.80
80743;SHT31;70142;50.894;6.052;2024-03-02T09:11:12;10.26;63.54
80743;SHT31;70142;50.894;6.052;2024-03-02T09:13:45;10.29;62.67
80743;SHT31;70142;50.894;6.052;2024-03-02T09:16:18;10.47;62.95
80743;SHT31;70142;50.894;6.052;2024-03-02T09:18:53;10.70;62.91
80743;SHT31;70142;50.894;6.052;2024-03-02T09:21:26;10.80;62.34
80743;SHT31;70142;50.894;6.052;2024-03-02T09:24:01;10.84;62.12
80743;SHT31;70142;50.894;6.052;2024-03-02T09:26:35;10.91;61.36
80743;SHT31;70142;50.894;6.052;2024-03-02T09:29:08;10.99;61.35
80743;SHT31;70142;50.894;6.052;2024-03-02T09:31:42;11.06;61.17
80743;SHT31;70142;50.894;6.052;2024-03-02T09:34:17;11.07;60.75
80743;SHT31;70142;50.894;6.052;2024-03-02T09:36:51;11.10;59.93
80743;SHT31;70142;50.894;6.052;2024-03-02T09:39:24;11.17;59.80
80743;SHT31;70142;50.894;6.052;2024-03-02T09:41:59;11.20;59.19
80743;SHT31;70142;50.894;6.052;2024-03-02T09:44:35;11.24;60.00
80743;SHT31;70142;50.894;6.052;2024-03-02T09:47:08;11.38;58.56
80743;SHT31;70142;50.894;6.052;2024-03-02T09:49:42;11.39;59.33
80743;SHT31;70142;50.894;6.052;2024-03-02T09:52:16;11.50;59.28
80743;SHT31;70142;50.894;6.052;2024-03-02T09:54:49;11.61;58.38
80743;SHT31;70142;50.894;6.052;2024-03-02T09:57:23;11.55;58.98
80743;SHT31;70142;50.894;6.052;2024-03-02T09:59:56;11.68;58.32
80743;SHT31;70142;50.894;6.052;2024-03-02T10:02:32;11.62;58.39
80743;SHT31;70142;50.894;6.052;2024-03-02T10:05:07;11.68;58.59
80743;SHT31;70142;50.894;6.052;2024-03-02T10:07:40;11.65;58.18
80743;SHT31;70142;50.894;6.052;2024-03-02T10:10:15;11.62;58.13
80743;SHT31;70142;50.894;6.052;2024-03-02T10:12:59;11.61;58.50
80743;SHT31;70142;50.894;6.052;2024-03-02T10:15:38;11.78;57.99
80743;SHT31;70142;50.894;6.052;2024-03-02T10:18:13;11.79;57.26
80743;SHT31;70142;50.894;6.052;2024-03-02T10:20:49;11.93;57.01
80743;SHT31;70142;50.894;6.052;2024-03-02T10:23:22;11.82;57.45
80743;SHT31;70142;50.894;6.052;2024-03-02T10:25:57;11.86;56.91
80743;SHT31;70142;50.894;6.052;2024-03-02T10:28:32;11.95;56.99
80743;SHT31;70142;50.894;6.052;2024-03-02T10:31:06;12.10;56.97
80743;SHT31;70142;50.894;6.052;2024-03-02T10:33:41;12.05;56.90
80743;SHT31;70142;50.894;6.052;2024-03-02T10:36:16;12.12;56.73
80743;SHT31;70142;50.894;6.052;2024-03-02T10:38:49;12.30;55.98
80743;SHT31;70142;50.894;6.052;2024-03-02T10:41:27;12.20;56.80
80743;SHT31;70142;50.894;6.052;2024-03-02T10:44:02;12.29;56.81
80743;SHT31;70142;50.894;6.052;2024-03-02T10:46:37;12.40;55.85
80743;SHT31;70142;50.894;6.052;2024-03-02T10:49:10;12.85;55.46
80743;SHT31;70142;50.894;6.052;2024-03-02T10:51:45;13.52;53.40
80743;SHT31;70142;50.894;6.052;2024-03-02T10:54:19;14.21;52.14
80743;SHT31;70142;50.894;6.052;2024-03-02T10:56:59;15.08;49.94
80743;SHT31;70142;50.894;6.052;2024-03-02T10:59:34;15.20;49.89
80743;SHT31;70142;50.894;6.052;2024-03-02T11:02:12;14.74;49.29
80743;SHT31;70142;50.894;6.052;2024-03-02T11:04:49;14.61;49.93
80743;SHT31;70142;50.894;6.052;2024-03-02T11:07:25;14.91;49.95
80743;SHT31;70142;50.894;6.052;2024-03-02T11:10:01;15.46;49.40
80743;SHT31;70142;50.894;6.052;2024-03-02T11:12:50;15.42;48.55
80743;SHT31;70142;50.894;6.052;2024-03-02T11:15:27;15.39;48.71
80743;SHT31;70142;50.894;6.052;2024-03-02T11:18:04;15.20;48.33
80743;SHT31;70142;50.894;6.052;2024-03-02T11:20:42;15.20;47.97
80743;SHT31;70142;50.894;6.052;2024-03-02T11:23:17;14.92;48.04
80743;SHT31;70142;50.894;6.052;2024-03-02T11:25:52;14.41;49.98
80743;SHT31;70142;50.894;6.052;2024-03-02T11:28:35;14.30;49.78
80743;SHT31;70142;50.894;6.052;2024-03-02T11:31:09;13.82;50.91
80743;SHT31;70142;50.894;6.052;2024-03-02T11:33:42;13.61;51.65
80743;SHT31;70142;50.894;6.052;2024-03-02T11:36:16;13.55;52.50
80743;SHT31;70142;50.894;6.052;2024-03-02T11:38:51;13.58;53.47
80743;SHT31;70142;50.894;6.052;2024-03-02T11:41:25;13.84;53.96
80743;SHT31;70142;50.894;6.052;2024-03-02T11:43:59;14.16;51.51
80743;SHT31;70142;50.894;6.052;2024-03-02T11:46:33;14.07;51.93
80743;SHT31;70142;50.894;6.052;2024-03-02T11:49:06;14.27;51.40
80743;SHT31;70142;50.894;6.052;2024-03-02T11:52:00;14.24;50.97
80743;SHT31;70142;50.894;6.052;2024-03-02T11:54:39;14.47;51.02
80743;SHT31;70142;50.894;6.052;2024-03-02T11:57:14;15.25;49.50
80743;SHT31;70142;50.894;6.052;2024-03-02T11:59:48;15.76;47.67
80743;SHT31;70142;50.894;6.052;2024-03-02T12:02:22;15.59;48.95
80743;SHT31;70142;50.894;6.052;2024-03-02T12:04:57;15.81;47.63
80743;SHT31;70142;50.894;6.052;2024-03-02T12:07:32;15.53;48.29
80743;SHT31;70142;50.894;6.052;2024-03-02T12:10:07;15.08;49.67
80743;SHT31;70142;50.894;6.052;2024-03-02T12:12:41;15.06;49.75
80743;SHT31;70142;50.894;6.052;2024-03-02T12:15:14;15.18;50.00
80743;SHT31;70142;50.894;6.052;2024-03-02T12:17:48;15.06;49.84
80743;SHT31;70142;50.894;6.052;2024-03-02T12:20:21;15.10;49.92
80743;SHT31;70142;50.894;6.052;2024-03-02T12:22:57;15.40;50.23
80743;SHT31;70142;50.894;6.052;2024-03-02T12:25:32;15.70;49.08
80743;SHT31;70142;50.894;6.052;2024-03-02T12:28:06;15.83;48.97
80743;SHT31;70142;50.894;6.052;2024-03-02T12:30:40;15.87;47.51
80743;SHT31;70142;50.894;6.052;2024-03-02T12:33:13;15.97;47.92
80743;SHT31;70142;50.894;6.052;2024-03-02T12:35:46;16.01;48.17
80743;SHT31;70142;50.894;6.052;2024-03-02T12:38:21;17.06;47.22
80743;SHT31;70142;50.894;6.052;2024-03-02T12:40:59;17.87;44.53
80743;SHT31;70142;50.894;6.052;2024-03-02T12:43:32;17.22;45.11
80743;SHT31;70142;50.894;6.052;2024-03-02T12:46:05;16.41;47.09
80743;SHT31;70142;50.894;6.052;2024-03-02T12:48:39;16.21;48.25
80743;SHT31;70142;50.894;6.052;2024-03-02T12:51:14;16.00;47.84
80743;SHT31;70142;50.894;6.052;2024-03-02T12:53:53;15.70;48.52
80743;SHT31;70142;50.894;6.052;2024-03-02T12:56:30;15.69;48.93
80743;SHT31;70142;50.894;6.052;2024-03-02T12:59:04;15.33;49.43
80743;SHT31;70142;50.894;6.052;2024-03-02T13:01:37;15.44;51.06
80743;SHT31;70142;50.894;6.052;2024-03-02T13:04:11;15.20;50.31
80743;SHT31;70142;50.894;6.052;2024-03-02T13:06:45;15.13;51.20
80743;SHT31;70142;50.894;6.052;2024-03-02T13:09:18;15.23;51.71
80743;SHT31;70142;50.894;6.052;2024-03-02T13:11:54;15.40;51.31
80743;SHT31;70142;50.894;6.052;2024-03-02T13:14:28;15.49;50.73
80743;SHT31;70142;50.894;6.052;2024-03-02T13:17:04;15.44;51.04
80743;SHT31;70142;50.894;6.052;2024-03-02T13:19:38;15.28;51.10
80743;SHT31;70142;50.894;6.052;2024-03-02T13:22:13;15.43;51.21
80743;SHT31;70142;50.894;6.052;2024-03-02T13:24:46;15.56;50.92
80743;SHT31;70142;50.894;6.052;2024-03-02T13:27:21;15.64;50.73
80743;SHT31;70142;50.894;6.052;2024-03-02T13:29:55;15.54;51.02
80743;SHT31;70142;50.894;6.052;2024-03-02T13:32:28;15.28;51.76
80743;SHT31;70142;50.894;6.052;2024-03-02T13:35:02;15.44;51.28
80743;SHT31;70142;50.894;6.052;2024-03-02T13:37:36;15.80;50.16
80743;SHT31;70142;50.894;6.052;2024-03-02T13:40:11;15.89;51.21
80743;SHT31;70142;50.894;6.052;2024-03-02T13:42:50;15.96;50.78
80743;SHT31;70142;50.894;6.052;2024-03-02T13:45:25;16.04;50.76
80743;SHT31;70142;50.894;6.052;2024-03-02T13:48:00;15.81;50.97
80743;SHT31;70142;50.894;6.052;2024-03-02T13:50:33;15.66;50.84
80743;SHT31;70142;50.894;6.052;2024-03-02T13:53:06;15.73;51.12
80743;SHT31;70142;50.894;6.052;2024-03-02T13:55:40;15.97;50.54
80743;SHT31;70142;50.894;6.052;2024-03-02T13:58:15;15.91;50.93
80743;SHT31;70142;50.894;6.052;2024-03-02T14:00:49;15.66;51.02
80743;SHT31;70142;50.894;6.052;2024-03-02T14:03:22;15.53;50.55
80743;SHT31;70142;50.894;6.052;2024-03-02T14:05:58;15.66;51.17
80743;SHT31;70142;50.894;6.052;2024-03-02T14:08:31;15.91;51.19
80743;SHT31;70142;50.894;6.052;2024-03-02T14:11:05;15.79;50.95
80743;SHT31;70142;50.894;6.052;2024-03-02T14:13:40;15.59;51.76
80743;SHT31;70142;50.894;6.052;2024-03-02T14:16:14;15.46;52.22
80743;SHT31;70142;50.894;6.052;2024-03-02T14:18:47;15.18;52.29
80743;SHT31;70142;50.894;6.052;2024-03-02T14:21:21;15.20;53.39
80743;SHT31;70142;50.894;6.052;2024-03-02T14:23:54;15.02;53.39
80743;SHT31;70142;50.894;6.052;2024-03-02T14:26:27;14.88;53.86
80743;SHT31;70142;50.894;6.052;2024-03-02T14:29:05;14.78;54.15
80743;SHT31;70142;50.894;6.052;2024-03-02T14:31:38;14.75;54.12
80743;SHT31;70142;50.894;6.052;2024-03-02T14:34:11;14.89;54.62
80743;SHT31;70142;50.894;6.052;2024-03-02T14:36:44;14.92;53.96
80743;SHT31;70142;50.894;6.052;2024-03-02T14:39:18;14.67;54.27
80743;SHT31;70142;50.894;6.052;2024-03-02T14:41:51;14.74;54.47
80743;SHT31;70142;50.894;6.052;2024-03-02T14:44:26;14.64;54.46
80743;SHT31;70142;50.894;6.052;2024-03-02T14:47:01;14.81;54.24
80743;SHT31;70142;50.894;6.052;2024-03-02T14:49:36;14.84;54.16
80743;SHT31;70142;50.894;6.052;2024-03-02T14:52:12;14.91;54.14
80743;SHT31;70142;50.894;6.052;2024-03-02T14:54:46;14.96;54.09
80743;SHT31;70142;50.894;6.052;2024-03-02T14:57:19;15.10;53.57
80743;SHT31;70142;50.894;6.052;2024-03-02T14:59:54;15.42;53.36
80743;SHT31;70142;50.894;6.052;2024-03-02T15:02:28;15.67;51.89
80743;SHT31;70142;50.894;6.052;2024-03-02T15:05:02;15.73;52.12
80743;SHT31;70142;50.894;6.052;2024-03-02T15:07:35;15.90;51.56
80743;SHT31;70142;50.894;6.052;2024-03-02T15:10:09;15.73;51.03
80743;SHT31;70142;50.894;6.052;2024-03-02T15:12:43;15.44;50.46
80743;SHT31;70142;50.894;6.052;2024-03-02T15:15:18;15.28;51.43
80743;SHT31;70142;50.894;6.052;2024-03-02T15:17:51;15.26;52.05
80743;SHT31;70142;50.894;6.052;2024-03-02T15:20:24;15.32;51.41
80743;SHT31;70142;50.894;6.052;2024-03-02T15:22:57;15.39;51.70
80743;SHT31;70142;50.894;6.052;2024-03-02T15:25:31;15.54;51.40
80743;SHT31;70142;50.894;6.052;2024-03-02T15:28:04;15.57;51.33
80743;SHT31;70142;50.894;6.052;2024-03-02T15:30:39;15.57;51.32
80743;SHT31;70142;50.894;6.052;2024-03-02T15:33:13;15.51;51.94
80743;SHT31;70142;50.894;6.052;2024-03-02T15:35:49;15.51;51.58
80743;SHT31;70142;50.894;6.052;2024-03-02T15:38:22;15.53;51.69
80743;SHT31;70142;50.894;6.052;2024-03-02T15:41:05;15.35;52.61
80743;SHT31;70142;50.894;6.052;2024-03-02T15:43:38;15.13;52.61
80743;SHT31;70142;50.894;6.052;2024-03-02T15:46:15;15.16;51.92
80743;SHT31;70142;50.894;6.052;2024-03-02T15:48:48;15.08;52.19
80743;SHT31;70142;50.894;6.052;2024-03-02T15:51:22;14.93;52.39
80743;SHT31;70142;50.894;6.052;2024-03-02T15:53:56;14.91;52.48
80743;SHT31;70142;50.894;6.052;2024-03-02T15:56:29;14.96;52.24
80743;SHT31;70142;50.894;6.052;2024-03-02T15:59:02;14.87;52.83
80743;SHT31;70142;50.894;6.052;2024-03-02T16:01:38;14.99;51.69
80743;SHT31;70142;50.894;6.052;2024-03-02T16:04:14;14.87;52.62
80743;SHT31;70142;50.894;6.052;2024-03-02T16:06:47;15.19;51.76
80743;SHT31;70142;50.894;6.052;2024-03-02T16:09:22;15.44;51.17
80743;SHT31;70142;50.894;6.052;2024-03-02T16:11:55;15.40;51.11
80743;SHT31;70142;50.894;6.052;2024-03-02T16:14:28;15.33;51.56
80743;SHT31;70142;50.894;6.052;2024-03-02T16:17:03;15.16;52.09
80743;SHT31;70142;50.894;6.052;2024-03-02T16:19:38;15.10;51.68
80743;SHT31;70142;50.894;6.052;2024-03-02T16:22:13;15.13;52.07